AIC2739 VOBL-VOMM
Flight info
| Callsign | AIC2739 |
|---|---|
| Flight time | N/A |
| Altitude | 17000 |
| Route | BIA W116 MMV |
| Aircraft | A20N/M-SDE2E3FGHIRWXY/LB1 |
Departure
| Time | 2026-05-07 14:10 |
|---|---|
| Airport | Kempegowda International Airport Bengaluru (VOBL) |
Arrival
| Time | N/A |
|---|---|
| Airport | Chennai International Airport (VOMM) |
| Time | Latitude | Longitude | Altitude | Speed | Heading |
|---|---|---|---|---|---|
| 2026-05-07 13:54 | 13.20162 | 77.70212 | 2950 ft | 0 kts | 182° |
| 2026-05-07 14:00 | 13.20169 | 77.70212 | 2950 ft | 1 kts | 182° |
| 2026-05-07 14:00 | 13.20178 | 77.70213 | 2939 ft | 2 kts | 182° |
| 2026-05-07 14:00 | 13.20186 | 77.70213 | 2938 ft | 1 kts | 182° |
| 2026-05-07 14:00 | 13.20187 | 77.70213 | 2939 ft | 0 kts | 182° |
| 2026-05-07 14:01 | 13.20196 | 77.70213 | 2941 ft | 2 kts | 182° |
| 2026-05-07 14:01 | 13.20211 | 77.70214 | 2949 ft | 2 kts | 182° |
| 2026-05-07 14:01 | 13.20226 | 77.70215 | 2943 ft | 2 kts | 182° |
| 2026-05-07 14:01 | 13.20255 | 77.70223 | 2938 ft | 4 kts | 229° |
| 2026-05-07 14:02 | 13.20257 | 77.70226 | 2941 ft | 1 kts | 229° |
| 2026-05-07 14:02 | 13.20247 | 77.70213 | 2940 ft | 2 kts | 233° |
| 2026-05-07 14:02 | 13.20244 | 77.70199 | 2943 ft | 0 kts | 264° |
| 2026-05-07 14:05 | 13.20243 | 77.70186 | 2939 ft | 7 kts | 269° |
| 2026-05-07 14:05 | 13.20244 | 77.70017 | 2951 ft | 25 kts | 269° |
| 2026-05-07 14:05 | 13.20247 | 77.69885 | 2951 ft | 28 kts | 269° |
| 2026-05-07 14:05 | 13.20248 | 77.69674 | 2951 ft | 32 kts | 271° |
| 2026-05-07 14:06 | 13.20252 | 77.69433 | 2951 ft | 35 kts | 271° |
| 2026-05-07 14:06 | 13.20278 | 77.69352 | 2951 ft | 8 kts | 326° |
| 2026-05-07 14:06 | 13.20368 | 77.69331 | 2950 ft | 19 kts | 357° |
| 2026-05-07 14:06 | 13.20501 | 77.69327 | 2953 ft | 9 kts | 348° |
| 2026-05-07 14:07 | 13.20538 | 77.69302 | 2952 ft | 5 kts | 275° |
| 2026-05-07 14:07 | 13.20542 | 77.69247 | 2957 ft | 11 kts | 274° |
| 2026-05-07 14:07 | 13.20551 | 77.69153 | 2953 ft | 16 kts | 277° |
| 2026-05-07 14:07 | 13.20544 | 77.69037 | 2952 ft | 18 kts | 269° |
| 2026-05-07 14:08 | 13.20550 | 77.68892 | 2958 ft | 22 kts | 271° |
| 2026-05-07 14:08 | 13.20550 | 77.68719 | 2960 ft | 26 kts | 274° |
| 2026-05-07 14:08 | 13.20580 | 77.68625 | 2958 ft | 5 kts | 334° |
| 2026-05-07 14:08 | 13.20599 | 77.68616 | 2966 ft | 1 kts | 335° |
| 2026-05-07 14:09 | 13.20601 | 77.68615 | 2967 ft | 4 kts | 343° |
| 2026-05-07 14:09 | 13.20659 | 77.68622 | 2977 ft | 6 kts | 10° |
| 2026-05-07 14:09 | 13.20711 | 77.68695 | 2980 ft | 23 kts | 83° |
| 2026-05-07 14:09 | 13.20716 | 77.68873 | 2978 ft | 27 kts | 90° |
| 2026-05-07 14:10 | 13.20707 | 77.69228 | 2974 ft | 100 kts | 92° |
| 2026-05-07 14:10 | 13.20681 | 77.70276 | 3031 ft | 180 kts | 90° |
| 2026-05-07 14:10 | 13.20712 | 77.71626 | 3657 ft | 203 kts | 89° |
| 2026-05-07 14:10 | 13.20743 | 77.73262 | 4507 ft | 237 kts | 90° |
| 2026-05-07 14:11 | 13.20703 | 77.75036 | 5467 ft | 260 kts | 92° |
| 2026-05-07 14:11 | 13.20644 | 77.76953 | 5884 ft | 271 kts | 88° |
| 2026-05-07 14:11 | 13.20978 | 77.78838 | 6315 ft | 276 kts | 76° |
| 2026-05-07 14:11 | 13.21464 | 77.80788 | 7346 ft | 278 kts | 76° |
| 2026-05-07 14:12 | 13.21920 | 77.82699 | 8668 ft | 280 kts | 76° |
| 2026-05-07 14:12 | 13.22377 | 77.84654 | 9839 ft | 288 kts | 76° |
| 2026-05-07 14:12 | 13.22849 | 77.86681 | 10927 ft | 295 kts | 76° |
| 2026-05-07 14:12 | 13.23336 | 77.88768 | 11986 ft | 304 kts | 76° |
| 2026-05-07 14:13 | 13.23835 | 77.90899 | 13034 ft | 312 kts | 76° |
| 2026-05-07 14:13 | 13.24350 | 77.93105 | 14091 ft | 319 kts | 76° |
| 2026-05-07 14:13 | 13.24873 | 77.95342 | 15051 ft | 325 kts | 76° |
| 2026-05-07 14:13 | 13.25228 | 77.97669 | 15689 ft | 345 kts | 90° |
| 2026-05-07 14:14 | 13.24851 | 78.00197 | 16036 ft | 370 kts | 104° |
| 2026-05-07 14:14 | 13.24126 | 78.02799 | 16501 ft | 388 kts | 107° |
| 2026-05-07 14:14 | 13.23353 | 78.05450 | 16795 ft | 390 kts | 107° |
| 2026-05-07 14:14 | 13.22606 | 78.08147 | 16902 ft | 391 kts | 105° |
| 2026-05-07 14:15 | 13.21896 | 78.10852 | 16912 ft | 391 kts | 105° |
| 2026-05-07 14:15 | 13.21215 | 78.13529 | 16914 ft | 391 kts | 105° |
| 2026-05-07 14:15 | 13.20538 | 78.16221 | 16909 ft | 391 kts | 104° |
| 2026-05-07 14:15 | 13.19868 | 78.18891 | 16915 ft | 391 kts | 104° |
| 2026-05-07 14:16 | 13.19189 | 78.21592 | 16907 ft | 391 kts | 104° |
| 2026-05-07 14:16 | 13.18500 | 78.24327 | 16910 ft | 392 kts | 104° |
| 2026-05-07 14:16 | 13.17825 | 78.27004 | 16907 ft | 392 kts | 105° |
| 2026-05-07 14:16 | 13.17144 | 78.29701 | 16904 ft | 393 kts | 105° |
| 2026-05-07 14:17 | 13.16453 | 78.32435 | 16903 ft | 392 kts | 105° |
| 2026-05-07 14:17 | 13.15773 | 78.35127 | 16897 ft | 392 kts | 105° |
| 2026-05-07 14:17 | 13.15082 | 78.37863 | 16897 ft | 392 kts | 105° |
| 2026-05-07 14:17 | 13.14404 | 78.40548 | 16897 ft | 392 kts | 105° |
| 2026-05-07 14:18 | 13.13721 | 78.43254 | 16892 ft | 392 kts | 105° |
| 2026-05-07 14:18 | 13.13042 | 78.45933 | 16894 ft | 392 kts | 105° |
| 2026-05-07 14:18 | 13.12344 | 78.48684 | 16893 ft | 392 kts | 105° |
| 2026-05-07 14:18 | 13.11674 | 78.51321 | 16885 ft | 392 kts | 105° |
| 2026-05-07 14:19 | 13.10976 | 78.54070 | 16888 ft | 391 kts | 105° |
| 2026-05-07 14:19 | 13.10290 | 78.56769 | 16881 ft | 415 kts | 105° |
| 2026-05-07 14:19 | 13.09513 | 78.59821 | 16878 ft | 441 kts | 105° |
| 2026-05-07 14:19 | 13.08748 | 78.62832 | 16879 ft | 452 kts | 103° |
| 2026-05-07 14:20 | 13.07974 | 78.65926 | 16859 ft | 455 kts | 103° |
| 2026-05-07 14:20 | 13.07150 | 78.69112 | 16874 ft | 455 kts | 105° |
| 2026-05-07 14:20 | 13.06348 | 78.72253 | 16866 ft | 454 kts | 105° |
| 2026-05-07 14:20 | 13.05559 | 78.75358 | 16859 ft | 454 kts | 105° |
| 2026-05-07 14:21 | 13.04751 | 78.78529 | 16868 ft | 454 kts | 104° |
| 2026-05-07 14:21 | 13.03949 | 78.81675 | 16847 ft | 455 kts | 105° |
| 2026-05-07 14:21 | 13.03150 | 78.84813 | 16852 ft | 455 kts | 105° |
| 2026-05-07 14:21 | 13.02366 | 78.87895 | 16847 ft | 454 kts | 105° |
| 2026-05-07 14:22 | 13.01564 | 78.91041 | 16841 ft | 454 kts | 105° |
| 2026-05-07 14:22 | 13.00763 | 78.94183 | 16842 ft | 454 kts | 105° |
| 2026-05-07 14:22 | 12.99960 | 78.97323 | 16836 ft | 454 kts | 105° |
| 2026-05-07 14:22 | 12.99158 | 79.00456 | 16834 ft | 454 kts | 105° |
| 2026-05-07 14:23 | 12.98360 | 79.03570 | 16827 ft | 454 kts | 105° |
| 2026-05-07 14:23 | 12.97564 | 79.06712 | 16825 ft | 454 kts | 104° |
| 2026-05-07 14:23 | 12.97036 | 79.09879 | 16823 ft | 454 kts | 97° |
| 2026-05-07 14:23 | 12.96887 | 79.13141 | 16816 ft | 455 kts | 90° |
| 2026-05-07 14:24 | 12.96984 | 79.16388 | 16816 ft | 455 kts | 89° |
| 2026-05-07 14:24 | 12.97059 | 79.19621 | 16814 ft | 455 kts | 89° |
| 2026-05-07 14:24 | 12.97121 | 79.22877 | 16814 ft | 456 kts | 89° |
| 2026-05-07 14:24 | 12.97179 | 79.26072 | 16807 ft | 456 kts | 89° |
| 2026-05-07 14:25 | 12.97236 | 79.29323 | 16808 ft | 455 kts | 89° |
| 2026-05-07 14:25 | 12.97294 | 79.32569 | 16807 ft | 455 kts | 89° |
| 2026-05-07 14:25 | 12.97355 | 79.35839 | 16798 ft | 455 kts | 89° |
| 2026-05-07 14:25 | 12.97417 | 79.39088 | 16800 ft | 456 kts | 89° |
| 2026-05-07 14:26 | 12.97480 | 79.42347 | 16796 ft | 456 kts | 89° |
| 2026-05-07 14:26 | 12.97541 | 79.45569 | 16798 ft | 456 kts | 89° |
| 2026-05-07 14:26 | 12.97601 | 79.48852 | 16797 ft | 456 kts | 89° |
| 2026-05-07 14:26 | 12.97662 | 79.52113 | 16795 ft | 457 kts | 89° |
| 2026-05-07 14:27 | 12.97722 | 79.55362 | 16799 ft | 456 kts | 89° |
| 2026-05-07 14:27 | 12.97781 | 79.58562 | 16796 ft | 456 kts | 89° |
| 2026-05-07 14:27 | 12.97840 | 79.61755 | 16643 ft | 453 kts | 89° |
| 2026-05-07 14:27 | 12.97896 | 79.64965 | 16057 ft | 447 kts | 89° |
| 2026-05-07 14:28 | 12.97953 | 79.68150 | 15261 ft | 440 kts | 89° |
| 2026-05-07 14:28 | 12.98009 | 79.71249 | 14416 ft | 431 kts | 89° |
| 2026-05-07 14:28 | 12.98063 | 79.74290 | 13541 ft | 422 kts | 89° |
| 2026-05-07 14:28 | 12.98114 | 79.77273 | 12536 ft | 414 kts | 88° |
| 2026-05-07 14:29 | 12.98161 | 79.80187 | 11562 ft | 407 kts | 87° |
| 2026-05-07 14:29 | 12.98213 | 79.83063 | 10596 ft | 400 kts | 88° |
| 2026-05-07 14:29 | 12.98260 | 79.85875 | 9668 ft | 393 kts | 88° |
| 2026-05-07 14:29 | 12.98307 | 79.88649 | 8818 ft | 384 kts | 88° |
| 2026-05-07 14:30 | 12.98281 | 79.91365 | 7882 ft | 379 kts | 95° |
| 2026-05-07 14:30 | 12.97577 | 79.93960 | 6955 ft | 377 kts | 114° |
| 2026-05-07 14:30 | 12.96274 | 79.95968 | 6173 ft | 375 kts | 131° |
| 2026-05-07 14:30 | 12.94299 | 79.97591 | 5658 ft | 363 kts | 142° |
| 2026-05-07 14:31 | 12.92605 | 79.99413 | 5411 ft | 339 kts | 120° |
| 2026-05-07 14:31 | 12.91837 | 80.01550 | 5241 ft | 316 kts | 96° |
| 2026-05-07 14:31 | 12.92082 | 80.03719 | 5073 ft | 295 kts | 67° |
| 2026-05-07 14:31 | 12.93199 | 80.05374 | 4941 ft | 278 kts | 48° |
| 2026-05-07 14:32 | 12.94410 | 80.06768 | 4732 ft | 248 kts | 49° |
| 2026-05-07 14:32 | 12.95491 | 80.08077 | 4069 ft | 237 kts | 51° |
| 2026-05-07 14:32 | 12.96456 | 80.09420 | 3334 ft | 232 kts | 61° |
| 2026-05-07 14:32 | 12.97124 | 80.10930 | 2420 ft | 234 kts | 71° |
| 2026-05-07 14:33 | 12.97543 | 80.12539 | 1528 ft | 234 kts | 75° |
| 2026-05-07 14:33 | 12.97950 | 80.14093 | 870 ft | 225 kts | 77° |
| 2026-05-07 14:33 | 12.98491 | 80.15555 | 485 ft | 208 kts | 66° |
| 2026-05-07 14:33 | 12.99029 | 80.16878 | 158 ft | 194 kts | 70° |
| 2026-05-07 14:34 | 12.99469 | 80.18110 | 102 ft | 170 kts | 71° |
| 2026-05-07 14:34 | 12.99734 | 80.19225 | 1066 ft | 160 kts | 80° |
| 2026-05-07 14:34 | 13.00027 | 80.20592 | 1691 ft | 233 kts | 73° |
| 2026-05-07 14:34 | 13.00815 | 80.22225 | 2641 ft | 273 kts | 57° |
| 2026-05-07 14:35 | 13.02149 | 80.23802 | 3259 ft | 314 kts | 44° |
| 2026-05-07 14:35 | 13.04028 | 80.25201 | 3577 ft | 354 kts | 31° |
| 2026-05-07 14:35 | 13.04781 | 80.25608 | 3646 ft | 368 kts | 27° |